sensor_id;sensor_type;location;lat;lon;timestamp;temperature;humidity
9915;DHT22;4996;48.746;9.174;2023-12-28T00:00:25;8.40;94.40
9915;DHT22;4996;48.746;9.174;2023-12-28T00:02:51;8.40;94.40
9915;DHT22;4996;48.746;9.174;2023-12-28T00:05:16;8.50;94.10
9915;DHT22;4996;48.746;9.174;2023-12-28T00:07:42;8.50;94.20
9915;DHT22;4996;48.746;9.174;2023-12-28T00:10:07;8.40;94.00
9915;DHT22;4996;48.746;9.174;2023-12-28T00:12:33;8.50;93.60
9915;DHT22;4996;48.746;9.174;2023-12-28T00:14:58;8.60;93.70
9915;DHT22;4996;48.746;9.174;2023-12-28T00:17:24;8.60;93.50
9915;DHT22;4996;48.746;9.174;2023-12-28T00:19:49;8.60;93.30
9915;DHT22;4996;48.746;9.174;2023-12-28T00:22:15;8.50;93.10
9915;DHT22;4996;48.746;9.174;2023-12-28T00:24:40;8.60;93.10
9915;DHT22;4996;48.746;9.174;2023-12-28T00:27:06;8.60;92.70
9915;DHT22;4996;48.746;9.174;2023-12-28T00:29:31;8.70;93.00
9915;DHT22;4996;48.746;9.174;2023-12-28T00:31:57;8.70;92.80
9915;DHT22;4996;48.746;9.174;2023-12-28T00:34:23;8.70;92.70
9915;DHT22;4996;48.746;9.174;2023-12-28T00:36:48;8.70;92.50
9915;DHT22;4996;48.746;9.174;2023-12-28T00:39:14;8.70;92.60
9915;DHT22;4996;48.746;9.174;2023-12-28T00:41:40;8.70;92.20
9915;DHT22;4996;48.746;9.174;2023-12-28T00:44:05;8.70;92.50
9915;DHT22;4996;48.746;9.174;2023-12-28T00:46:35;8.70;92.30
9915;DHT22;4996;48.746;9.174;2023-12-28T00:49:00;8.80;91.90
9915;DHT22;4996;48.746;9.174;2023-12-28T00:51:26;8.80;92.20
9915;DHT22;4996;48.746;9.174;2023-12-28T00:53:51;8.90;92.00
9915;DHT22;4996;48.746;9.174;2023-12-28T00:56:17;8.90;91.70
9915;DHT22;4996;48.746;9.174;2023-12-28T00:58:42;8.90;92.10
9915;DHT22;4996;48.746;9.174;2023-12-28T01:01:09;8.80;91.60
9915;DHT22;4996;48.746;9.174;2023-12-28T01:03:35;8.90;91.80
9915;DHT22;4996;48.746;9.174;2023-12-28T01:06:00;8.90;91.50
9915;DHT22;4996;48.746;9.174;2023-12-28T01:08:26;8.90;91.70
9915;DHT22;4996;48.746;9.174;2023-12-28T01:10:51;8.90;91.60
9915;DHT22;4996;48.746;9.174;2023-12-28T01:13:17;8.80;91.60
9915;DHT22;4996;48.746;9.174;2023-12-28T01:15:42;8.80;91.70
9915;DHT22;4996;48.746;9.174;2023-12-28T01:18:08;8.70;91.90
9915;DHT22;4996;48.746;9.174;2023-12-28T01:20:34;8.70;91.60
9915;DHT22;4996;48.746;9.174;2023-12-28T01:23:00;8.70;91.70
9915;DHT22;4996;48.746;9.174;2023-12-28T01:25:25;8.70;91.70
9915;DHT22;4996;48.746;9.174;2023-12-28T01:27:51;8.70;91.70
9915;DHT22;4996;48.746;9.174;2023-12-28T01:30:16;8.70;91.80
9915;DHT22;4996;48.746;9.174;2023-12-28T01:32:42;8.70;91.70
9915;DHT22;4996;48.746;9.174;2023-12-28T01:35:08;8.70;91.60
9915;DHT22;4996;48.746;9.174;2023-12-28T01:37:33;8.70;91.60
9915;DHT22;4996;48.746;9.174;2023-12-28T01:39:59;8.70;91.50
9915;DHT22;4996;48.746;9.174;2023-12-28T01:42:26;8.70;91.90
9915;DHT22;4996;48.746;9.174;2023-12-28T01:44:51;8.70;92.20
9915;DHT22;4996;48.746;9.174;2023-12-28T01:47:18;8.70;91.50
9915;DHT22;4996;48.746;9.174;2023-12-28T01:49:44;8.80;91.60
9915;DHT22;4996;48.746;9.174;2023-12-28T01:52:09;8.70;91.70
9915;DHT22;4996;48.746;9.174;2023-12-28T01:54:36;8.70;92.20
9915;DHT22;4996;48.746;9.174;2023-12-28T01:57:03;8.70;92.20
9915;DHT22;4996;48.746;9.174;2023-12-28T01:59:30;8.60;92.00
9915;DHT22;4996;48.746;9.174;2023-12-28T02:01:56;8.60;92.10
9915;DHT22;4996;48.746;9.174;2023-12-28T02:04:22;8.60;92.10
9915;DHT22;4996;48.746;9.174;2023-12-28T02:06:56;8.60;91.80
9915;DHT22;4996;48.746;9.174;2023-12-28T02:09:22;8.60;92.00
9915;DHT22;4996;48.746;9.174;2023-12-28T02:11:47;8.60;92.00
9915;DHT22;4996;48.746;9.174;2023-12-28T02:14:13;8.60;92.30
9915;DHT22;4996;48.746;9.174;2023-12-28T02:16:46;8.60;92.40
9915;DHT22;4996;48.746;9.174;2023-12-28T02:19:25;8.60;92.10
9915;DHT22;4996;48.746;9.174;2023-12-28T02:21:57;8.60;92.20
9915;DHT22;4996;48.746;9.174;2023-12-28T02:24:24;8.50;92.40
9915;DHT22;4996;48.746;9.174;2023-12-28T02:26:49;8.50;92.50
9915;DHT22;4996;48.746;9.174;2023-12-28T02:29:15;8.40;92.70
9915;DHT22;4996;48.746;9.174;2023-12-28T02:31:46;8.40;92.70
9915;DHT22;4996;48.746;9.174;2023-12-28T02:34:37;8.40;92.90
9915;DHT22;4996;48.746;9.174;2023-12-28T02:37:04;8.40;93.00
9915;DHT22;4996;48.746;9.174;2023-12-28T02:39:30;8.30;93.00
9915;DHT22;4996;48.746;9.174;2023-12-28T02:41:57;8.30;93.20
9915;DHT22;4996;48.746;9.174;2023-12-28T02:44:22;8.20;93.10
9915;DHT22;4996;48.746;9.174;2023-12-28T02:46:48;8.20;93.30
9915;DHT22;4996;48.746;9.174;2023-12-28T02:49:14;8.20;93.40
9915;DHT22;4996;48.746;9.174;2023-12-28T02:51:40;8.10;93.70
9915;DHT22;4996;48.746;9.174;2023-12-28T02:54:08;8.10;93.70
9915;DHT22;4996;48.746;9.174;2023-12-28T02:56:33;8.10;93.80
9915;DHT22;4996;48.746;9.174;2023-12-28T02:58:59;8.10;93.90
9915;DHT22;4996;48.746;9.174;2023-12-28T03:01:24;8.00;94.10
9915;DHT22;4996;48.746;9.174;2023-12-28T03:03:50;8.00;94.20
9915;DHT22;4996;48.746;9.174;2023-12-28T03:06:15;8.00;94.20
9915;DHT22;4996;48.746;9.174;2023-12-28T03:08:41;8.00;94.20
9915;DHT22;4996;48.746;9.174;2023-12-28T03:11:06;8.00;94.40
9915;DHT22;4996;48.746;9.174;2023-12-28T03:13:32;8.00;94.50
9915;DHT22;4996;48.746;9.174;2023-12-28T03:15:57;8.00;94.60
9915;DHT22;4996;48.746;9.174;2023-12-28T03:18:23;8.00;94.70
9915;DHT22;4996;48.746;9.174;2023-12-28T03:20:48;7.90;94.60
9915;DHT22;4996;48.746;9.174;2023-12-28T03:23:14;7.90;94.60
9915;DHT22;4996;48.746;9.174;2023-12-28T03:25:39;7.90;94.30
9915;DHT22;4996;48.746;9.174;2023-12-28T03:28:05;8.00;94.40
9915;DHT22;4996;48.746;9.174;2023-12-28T03:30:30;8.00;94.50
9915;DHT22;4996;48.746;9.174;2023-12-28T03:32:56;8.00;94.60
9915;DHT22;4996;48.746;9.174;2023-12-28T03:35:21;8.00;94.60
9915;DHT22;4996;48.746;9.174;2023-12-28T03:37:47;8.00;94.60
9915;DHT22;4996;48.746;9.174;2023-12-28T03:40:13;8.00;94.60
9915;DHT22;4996;48.746;9.174;2023-12-28T03:42:38;8.00;94.60
9915;DHT22;4996;48.746;9.174;2023-12-28T03:45:04;8.00;94.70
9915;DHT22;4996;48.746;9.174;2023-12-28T03:47:30;8.10;94.70
9915;DHT22;4996;48.746;9.174;2023-12-28T03:49:55;8.10;94.90
9915;DHT22;4996;48.746;9.174;2023-12-28T03:52:22;8.10;94.90
9915;DHT22;4996;48.746;9.174;2023-12-28T03:54:48;8.00;94.50
9915;DHT22;4996;48.746;9.174;2023-12-28T03:57:14;8.10;94.70
9915;DHT22;4996;48.746;9.174;2023-12-28T03:59:40;8.10;94.70
9915;DHT22;4996;48.746;9.174;2023-12-28T04:02:05;8.00;95.00
9915;DHT22;4996;48.746;9.174;2023-12-28T04:04:31;8.10;95.10
9915;DHT22;4996;48.746;9.174;2023-12-28T04:06:56;8.10;95.10
9915;DHT22;4996;48.746;9.174;2023-12-28T04:09:22;8.20;94.80
9915;DHT22;4996;48.746;9.174;2023-12-28T04:11:47;8.30;94.70
9915;DHT22;4996;48.746;9.174;2023-12-28T04:14:13;8.30;94.50
9915;DHT22;4996;48.746;9.174;2023-12-28T04:16:39;8.40;94.50
9915;DHT22;4996;48.746;9.174;2023-12-28T04:19:04;8.40;94.20
9915;DHT22;4996;48.746;9.174;2023-12-28T04:21:30;8.50;94.10
9915;DHT22;4996;48.746;9.174;2023-12-28T04:23:55;8.70;93.50
9915;DHT22;4996;48.746;9.174;2023-12-28T04:26:21;8.70;93.30
9915;DHT22;4996;48.746;9.174;2023-12-28T04:28:46;8.80;92.90
9915;DHT22;4996;48.746;9.174;2023-12-28T04:31:12;8.90;92.90
9915;DHT22;4996;48.746;9.174;2023-12-28T04:33:38;9.00;92.70
9915;DHT22;4996;48.746;9.174;2023-12-28T04:36:04;9.20;92.60
9915;DHT22;4996;48.746;9.174;2023-12-28T04:38:30;9.20;92.70
9915;DHT22;4996;48.746;9.174;2023-12-28T04:40:57;9.30;92.60
9915;DHT22;4996;48.746;9.174;2023-12-28T04:43:22;9.40;92.50
9915;DHT22;4996;48.746;9.174;2023-12-28T04:45:49;9.40;92.20
9915;DHT22;4996;48.746;9.174;2023-12-28T04:48:15;9.50;92.10
9915;DHT22;4996;48.746;9.174;2023-12-28T04:50:40;9.60;91.80
9915;DHT22;4996;48.746;9.174;2023-12-28T04:53:06;9.60;91.60
9915;DHT22;4996;48.746;9.174;2023-12-28T04:55:31;9.70;91.40
9915;DHT22;4996;48.746;9.174;2023-12-28T04:57:57;9.70;91.30
9915;DHT22;4996;48.746;9.174;2023-12-28T05:00:22;9.80;91.60
9915;DHT22;4996;48.746;9.174;2023-12-28T05:02:48;9.80;91.10
9915;DHT22;4996;48.746;9.174;2023-12-28T05:05:13;9.80;91.40
9915;DHT22;4996;48.746;9.174;2023-12-28T05:07:39;9.90;91.40
9915;DHT22;4996;48.746;9.174;2023-12-28T05:10:05;9.90;91.30
9915;DHT22;4996;48.746;9.174;2023-12-28T05:12:31;9.70;91.30
9915;DHT22;4996;48.746;9.174;2023-12-28T05:14:56;9.90;91.70
9915;DHT22;4996;48.746;9.174;2023-12-28T05:17:22;9.90;91.40
9915;DHT22;4996;48.746;9.174;2023-12-28T05:19:47;10.00;91.20
9915;DHT22;4996;48.746;9.174;2023-12-28T05:22:13;10.00;91.20
9915;DHT22;4996;48.746;9.174;2023-12-28T05:24:38;10.00;91.30
9915;DHT22;4996;48.746;9.174;2023-12-28T05:27:04;10.00;91.50
9915;DHT22;4996;48.746;9.174;2023-12-28T05:29:29;9.90;92.10
9915;DHT22;4996;48.746;9.174;2023-12-28T05:31:55;10.00;91.70
9915;DHT22;4996;48.746;9.174;2023-12-28T05:34:21;10.10;91.80
9915;DHT22;4996;48.746;9.174;2023-12-28T05:36:46;10.10;91.70
9915;DHT22;4996;48.746;9.174;2023-12-28T05:39:12;10.10;92.10
9915;DHT22;4996;48.746;9.174;2023-12-28T05:41:40;9.80;92.20
9915;DHT22;4996;48.746;9.174;2023-12-28T05:44:06;9.90;92.20
9915;DHT22;4996;48.746;9.174;2023-12-28T05:46:31;10.00;91.90
9915;DHT22;4996;48.746;9.174;2023-12-28T05:48:57;10.10;91.60
9915;DHT22;4996;48.746;9.174;2023-12-28T05:51:23;10.10;91.60
9915;DHT22;4996;48.746;9.174;2023-12-28T05:53:48;10.20;91.80
9915;DHT22;4996;48.746;9.174;2023-12-28T05:56:13;10.30;91.90
9915;DHT22;4996;48.746;9.174;2023-12-28T05:58:39;10.30;92.00
9915;DHT22;4996;48.746;9.174;2023-12-28T06:01:05;10.30;91.90
9915;DHT22;4996;48.746;9.174;2023-12-28T06:03:31;10.30;92.00
9915;DHT22;4996;48.746;9.174;2023-12-28T06:05:56;10.30;92.10
9915;DHT22;4996;48.746;9.174;2023-12-28T06:08:22;10.40;92.30
9915;DHT22;4996;48.746;9.174;2023-12-28T06:10:47;10.40;92.40
9915;DHT22;4996;48.746;9.174;2023-12-28T06:13:13;10.40;92.50
9915;DHT22;4996;48.746;9.174;2023-12-28T06:15:38;10.50;92.60
9915;DHT22;4996;48.746;9.174;2023-12-28T06:18:04;10.40;92.50
9915;DHT22;4996;48.746;9.174;2023-12-28T06:20:30;10.50;92.70
9915;DHT22;4996;48.746;9.174;2023-12-28T06:22:55;10.50;92.70
9915;DHT22;4996;48.746;9.174;2023-12-28T06:25:21;10.50;92.70
9915;DHT22;4996;48.746;9.174;2023-12-28T06:27:46;10.50;92.80
9915;DHT22;4996;48.746;9.174;2023-12-28T06:30:12;10.50;93.10
9915;DHT22;4996;48.746;9.174;2023-12-28T06:32:38;10.50;93.00
9915;DHT22;4996;48.746;9.174;2023-12-28T06:35:04;10.60;92.90
9915;DHT22;4996;48.746;9.174;2023-12-28T06:37:29;10.60;93.00
9915;DHT22;4996;48.746;9.174;2023-12-28T06:39:55;10.70;93.20
9915;DHT22;4996;48.746;9.174;2023-12-28T06:42:20;10.70;93.40
9915;DHT22;4996;48.746;9.174;2023-12-28T06:44:46;10.70;93.50
9915;DHT22;4996;48.746;9.174;2023-12-28T06:47:11;10.70;93.60
9915;DHT22;4996;48.746;9.174;2023-12-28T06:49:37;10.80;94.10
9915;DHT22;4996;48.746;9.174;2023-12-28T06:52:03;10.70;93.90
9915;DHT22;4996;48.746;9.174;2023-12-28T06:54:28;10.70;94.30
9915;DHT22;4996;48.746;9.174;2023-12-28T06:56:53;10.80;94.50
9915;DHT22;4996;48.746;9.174;2023-12-28T06:59:19;10.80;94.60
9915;DHT22;4996;48.746;9.174;2023-12-28T07:01:44;10.80;94.80
9915;DHT22;4996;48.746;9.174;2023-12-28T07:04:11;10.90;94.90
9915;DHT22;4996;48.746;9.174;2023-12-28T07:06:37;10.90;94.90
9915;DHT22;4996;48.746;9.174;2023-12-28T07:09:03;10.90;95.10
9915;DHT22;4996;48.746;9.174;2023-12-28T07:11:29;11.00;95.50
9915;DHT22;4996;48.746;9.174;2023-12-28T07:13:55;10.90;95.70
9915;DHT22;4996;48.746;9.174;2023-12-28T07:16:21;11.00;95.90
9915;DHT22;4996;48.746;9.174;2023-12-28T07:18:46;11.00;96.20
9915;DHT22;4996;48.746;9.174;2023-12-28T07:21:12;11.00;96.30
9915;DHT22;4996;48.746;9.174;2023-12-28T07:23:37;11.10;96.60
9915;DHT22;4996;48.746;9.174;2023-12-28T07:26:04;11.00;96.70
9915;DHT22;4996;48.746;9.174;2023-12-28T07:28:29;11.10;97.10
9915;DHT22;4996;48.746;9.174;2023-12-28T07:30:55;11.00;97.50
9915;DHT22;4996;48.746;9.174;2023-12-28T07:33:21;11.00;97.40
9915;DHT22;4996;48.746;9.174;2023-12-28T07:35:46;11.00;97.70
9915;DHT22;4996;48.746;9.174;2023-12-28T07:38:12;11.10;97.80
9915;DHT22;4996;48.746;9.174;2023-12-28T07:40:38;11.10;97.90
9915;DHT22;4996;48.746;9.174;2023-12-28T07:43:04;11.10;97.90
9915;DHT22;4996;48.746;9.174;2023-12-28T07:45:29;11.10;98.20
9915;DHT22;4996;48.746;9.174;2023-12-28T07:47:55;11.10;98.40
9915;DHT22;4996;48.746;9.174;2023-12-28T07:50:21;11.10;98.60
9915;DHT22;4996;48.746;9.174;2023-12-28T07:52:47;11.10;98.80
9915;DHT22;4996;48.746;9.174;2023-12-28T07:55:13;11.00;99.10
9915;DHT22;4996;48.746;9.174;2023-12-28T07:57:39;11.00;99.30
9915;DHT22;4996;48.746;9.174;2023-12-28T08:00:06;11.00;99.70
9915;DHT22;4996;48.746;9.174;2023-12-28T08:02:31;10.90;99.90
9915;DHT22;4996;48.746;9.174;2023-12-28T08:04:57;11.00;99.90
9915;DHT22;4996;48.746;9.174;2023-12-28T08:07:22;11.00;99.90
9915;DHT22;4996;48.746;9.174;2023-12-28T08:09:48;11.00;99.90
9915;DHT22;4996;48.746;9.174;2023-12-28T08:12:13;11.00;99.90
9915;DHT22;4996;48.746;9.174;2023-12-28T08:14:39;11.00;99.90
9915;DHT22;4996;48.746;9.174;2023-12-28T08:17:04;11.00;99.90
9915;DHT22;4996;48.746;9.174;2023-12-28T08:19:30;11.00;99.90
9915;DHT22;4996;48.746;9.174;2023-12-28T08:21:55;11.10;99.90
9915;DHT22;4996;48.746;9.174;2023-12-28T08:24:21;11.10;99.90
9915;DHT22;4996;48.746;9.174;2023-12-28T08:26:46;11.10;99.90
9915;DHT22;4996;48.746;9.174;2023-12-28T08:29:12;11.10;99.90
9915;DHT22;4996;48.746;9.174;2023-12-28T08:31:38;11.10;99.90
9915;DHT22;4996;48.746;9.174;2023-12-28T08:34:03;11.10;99.90
9915;DHT22;4996;48.746;9.174;2023-12-28T08:36:29;11.10;99.90
9915;DHT22;4996;48.746;9.174;2023-12-28T08:38:54;11.20;99.90
9915;DHT22;4996;48.746;9.174;2023-12-28T08:41:23;11.20;99.90
9915;DHT22;4996;48.746;9.174;2023-12-28T08:43:52;11.20;99.90
9915;DHT22;4996;48.746;9.174;2023-12-28T08:46:19;11.20;99.90
9915;DHT22;4996;48.746;9.174;2023-12-28T08:48:45;11.20;99.90
9915;DHT22;4996;48.746;9.174;2023-12-28T08:51:10;11.20;99.90
9915;DHT22;4996;48.746;9.174;2023-12-28T08:53:36;11.20;99.90
9915;DHT22;4996;48.746;9.174;2023-12-28T08:56:12;11.30;99.90
9915;DHT22;4996;48.746;9.174;2023-12-28T08:58:37;11.30;99.90
9915;DHT22;4996;48.746;9.174;2023-12-28T09:01:03;11.30;99.90
9915;DHT22;4996;48.746;9.174;2023-12-28T09:03:28;11.40;99.90
9915;DHT22;4996;48.746;9.174;2023-12-28T09:05:54;11.40;99.90
9915;DHT22;4996;48.746;9.174;2023-12-28T09:08:19;11.40;99.90
9915;DHT22;4996;48.746;9.174;2023-12-28T09:10:45;11.40;99.90
9915;DHT22;4996;48.746;9.174;2023-12-28T09:13:16;11.30;99.90
9915;DHT22;4996;48.746;9.174;2023-12-28T09:15:42;11.40;99.90
9915;DHT22;4996;48.746;9.174;2023-12-28T09:18:08;11.50;99.90
9915;DHT22;4996;48.746;9.174;2023-12-28T09:20:33;11.60;99.90
9915;DHT22;4996;48.746;9.174;2023-12-28T09:23:01;11.70;99.90
9915;DHT22;4996;48.746;9.174;2023-12-28T09:25:26;11.70;99.90
9915;DHT22;4996;48.746;9.174;2023-12-28T09:27:52;11.80;99.90
9915;DHT22;4996;48.746;9.174;2023-12-28T09:30:18;11.80;99.90
9915;DHT22;4996;48.746;9.174;2023-12-28T09:32:43;11.90;99.90
9915;DHT22;4996;48.746;9.174;2023-12-28T09:35:09;11.90;99.90
9915;DHT22;4996;48.746;9.174;2023-12-28T09:37:34;12.00;99.90
9915;DHT22;4996;48.746;9.174;2023-12-28T09:40:00;12.10;99.90
9915;DHT22;4996;48.746;9.174;2023-12-28T09:42:26;12.10;99.90
9915;DHT22;4996;48.746;9.174;2023-12-28T09:44:54;12.20;99.90
9915;DHT22;4996;48.746;9.174;2023-12-28T09:47:20;12.20;99.90
9915;DHT22;4996;48.746;9.174;2023-12-28T09:49:45;12.20;99.90
9915;DHT22;4996;48.746;9.174;2023-12-28T09:52:12;12.30;99.90
9915;DHT22;4996;48.746;9.174;2023-12-28T09:54:37;12.40;99.90
9915;DHT22;4996;48.746;9.174;2023-12-28T09:57:03;12.40;99.90
9915;DHT22;4996;48.746;9.174;2023-12-28T09:59:30;12.40;99.90
9915;DHT22;4996;48.746;9.174;2023-12-28T10:01:58;12.40;99.90
9915;DHT22;4996;48.746;9.174;2023-12-28T10:04:26;12.40;99.90
9915;DHT22;4996;48.746;9.174;2023-12-28T10:06:54;12.30;99.90
9915;DHT22;4996;48.746;9.174;2023-12-28T10:09:21;12.30;99.90
9915;DHT22;4996;48.746;9.174;2023-12-28T10:11:47;12.40;99.90
9915;DHT22;4996;48.746;9.174;2023-12-28T10:14:13;12.40;99.90
9915;DHT22;4996;48.746;9.174;2023-12-28T10:16:42;12.40;99.90
9915;DHT22;4996;48.746;9.174;2023-12-28T10:19:07;12.20;99.90
9915;DHT22;4996;48.746;9.174;2023-12-28T10:21:33;12.30;99.90
9915;DHT22;4996;48.746;9.174;2023-12-28T10:23:59;12.40;99.90
9915;DHT22;4996;48.746;9.174;2023-12-28T10:26:25;12.40;99.90
9915;DHT22;4996;48.746;9.174;2023-12-28T10:28:57;12.40;99.90
9915;DHT22;4996;48.746;9.174;2023-12-28T10:31:24;12.40;99.90
9915;DHT22;4996;48.746;9.174;2023-12-28T10:33:49;12.30;99.90
9915;DHT22;4996;48.746;9.174;2023-12-28T10:36:15;12.20;99.90
9915;DHT22;4996;48.746;9.174;2023-12-28T10:38:43;12.10;99.90
9915;DHT22;4996;48.746;9.174;2023-12-28T10:41:10;12.20;99.90
9915;DHT22;4996;48.746;9.174;2023-12-28T10:46:25;12.10;99.90
9915;DHT22;4996;48.746;9.174;2023-12-28T10:48:53;12.10;99.90
9915;DHT22;4996;48.746;9.174;2023-12-28T10:51:23;12.10;99.90
9915;DHT22;4996;48.746;9.174;2023-12-28T10:56:49;12.30;99.90
9915;DHT22;4996;48.746;9.174;2023-12-28T11:02:01;12.50;99.90
9915;DHT22;4996;48.746;9.174;2023-12-28T11:04:49;12.60;99.90
9915;DHT22;4996;48.746;9.174;2023-12-28T11:07:17;12.70;99.90
9915;DHT22;4996;48.746;9.174;2023-12-28T11:09:43;12.70;99.90
9915;DHT22;4996;48.746;9.174;2023-12-28T11:12:09;12.80;99.90
9915;DHT22;4996;48.746;9.174;2023-12-28T11:14:37;12.90;99.90
9915;DHT22;4996;48.746;9.174;2023-12-28T11:17:04;12.90;99.90
9915;DHT22;4996;48.746;9.174;2023-12-28T11:19:30;12.90;99.90
9915;DHT22;4996;48.746;9.174;2023-12-28T11:21:58;12.90;99.90
9915;DHT22;4996;48.746;9.174;2023-12-28T11:24:26;12.80;99.90
9915;DHT22;4996;48.746;9.174;2023-12-28T11:26:53;12.70;99.90
9915;DHT22;4996;48.746;9.174;2023-12-28T11:29:20;12.60;99.90
9915;DHT22;4996;48.746;9.174;2023-12-28T11:31:54;12.70;99.90
9915;DHT22;4996;48.746;9.174;2023-12-28T11:34:25;12.80;99.90
9915;DHT22;4996;48.746;9.174;2023-12-28T11:36:52;12.80;99.90
9915;DHT22;4996;48.746;9.174;2023-12-28T11:39:30;12.80;99.90
9915;DHT22;4996;48.746;9.174;2023-12-28T11:42:06;12.60;99.90
9915;DHT22;4996;48.746;9.174;2023-12-28T11:44:40;12.60;99.90
9915;DHT22;4996;48.746;9.174;2023-12-28T11:47:14;12.60;99.90
9915;DHT22;4996;48.746;9.174;2023-12-28T11:49:40;12.60;99.90
9915;DHT22;4996;48.746;9.174;2023-12-28T11:52:07;12.70;99.90
9915;DHT22;4996;48.746;9.174;2023-12-28T11:54:32;12.70;99.90
9915;DHT22;4996;48.746;9.174;2023-12-28T11:56:58;12.80;99.90
9915;DHT22;4996;48.746;9.174;2023-12-28T11:59:24;12.70;99.90
9915;DHT22;4996;48.746;9.174;2023-12-28T12:01:50;12.60;99.90
9915;DHT22;4996;48.746;9.174;2023-12-28T12:04:17;12.70;99.90
9915;DHT22;4996;48.746;9.174;2023-12-28T12:06:45;12.60;99.90
9915;DHT22;4996;48.746;9.174;2023-12-28T12:09:12;12.60;99.90
9915;DHT22;4996;48.746;9.174;2023-12-28T12:11:38;12.70;99.90
9915;DHT22;4996;48.746;9.174;2023-12-28T12:14:07;12.70;99.90
9915;DHT22;4996;48.746;9.174;2023-12-28T12:16:35;12.70;99.90
9915;DHT22;4996;48.746;9.174;2023-12-28T12:19:00;12.70;99.90
9915;DHT22;4996;48.746;9.174;2023-12-28T12:21:27;12.70;99.90
9915;DHT22;4996;48.746;9.174;2023-12-28T12:23:54;12.70;99.90
9915;DHT22;4996;48.746;9.174;2023-12-28T12:26:19;12.60;99.90
9915;DHT22;4996;48.746;9.174;2023-12-28T12:28:47;12.60;99.90
9915;DHT22;4996;48.746;9.174;2023-12-28T12:31:13;12.60;99.90
9915;DHT22;4996;48.746;9.174;2023-12-28T12:33:39;12.70;99.90
9915;DHT22;4996;48.746;9.174;2023-12-28T12:36:06;12.80;99.90
9915;DHT22;4996;48.746;9.174;2023-12-28T12:38:32;12.90;99.90
9915;DHT22;4996;48.746;9.174;2023-12-28T12:40:58;12.90;99.90
9915;DHT22;4996;48.746;9.174;2023-12-28T12:43:24;12.90;99.90
9915;DHT22;4996;48.746;9.174;2023-12-28T12:45:50;12.90;99.90
9915;DHT22;4996;48.746;9.174;2023-12-28T12:48:16;12.90;99.90
9915;DHT22;4996;48.746;9.174;2023-12-28T12:50:43;12.90;99.90
9915;DHT22;4996;48.746;9.174;2023-12-28T12:53:08;12.90;99.90
9915;DHT22;4996;48.746;9.174;2023-12-28T12:55:36;13.00;99.90
9915;DHT22;4996;48.746;9.174;2023-12-28T12:58:04;12.90;99.90
9915;DHT22;4996;48.746;9.174;2023-12-28T13:00:30;13.00;99.90
9915;DHT22;4996;48.746;9.174;2023-12-28T13:02:59;12.90;99.90
9915;DHT22;4996;48.746;9.174;2023-12-28T13:05:24;12.90;99.90
9915;DHT22;4996;48.746;9.174;2023-12-28T13:07:51;12.80;99.90
9915;DHT22;4996;48.746;9.174;2023-12-28T13:10:17;12.80;99.90
9915;DHT22;4996;48.746;9.174;2023-12-28T13:12:42;12.90;99.90
9915;DHT22;4996;48.746;9.174;2023-12-28T13:15:08;12.90;99.90
9915;DHT22;4996;48.746;9.174;2023-12-28T13:17:38;12.80;99.90
9915;DHT22;4996;48.746;9.174;2023-12-28T13:20:04;12.80;99.90
9915;DHT22;4996;48.746;9.174;2023-12-28T13:22:32;12.90;99.90
9915;DHT22;4996;48.746;9.174;2023-12-28T13:24:58;12.90;99.90
9915;DHT22;4996;48.746;9.174;2023-12-28T13:27:23;12.90;99.90
9915;DHT22;4996;48.746;9.174;2023-12-28T13:29:49;12.60;99.90
9915;DHT22;4996;48.746;9.174;2023-12-28T13:32:14;12.50;99.90
9915;DHT22;4996;48.746;9.174;2023-12-28T13:34:40;12.50;99.90
9915;DHT22;4996;48.746;9.174;2023-12-28T13:37:06;12.40;99.90
9915;DHT22;4996;48.746;9.174;2023-12-28T13:39:31;12.50;99.90
9915;DHT22;4996;48.746;9.174;2023-12-28T13:41:58;12.50;99.90
9915;DHT22;4996;48.746;9.174;2023-12-28T13:44:23;12.60;99.90
9915;DHT22;4996;48.746;9.174;2023-12-28T13:46:49;12.60;99.90
9915;DHT22;4996;48.746;9.174;2023-12-28T13:49:14;12.70;99.90
9915;DHT22;4996;48.746;9.174;2023-12-28T13:51:40;12.60;99.90
9915;DHT22;4996;48.746;9.174;2023-12-28T13:54:05;12.50;99.90
9915;DHT22;4996;48.746;9.174;2023-12-28T13:56:31;12.60;99.90
9915;DHT22;4996;48.746;9.174;2023-12-28T13:58:57;12.60;99.90
9915;DHT22;4996;48.746;9.174;2023-12-28T14:01:22;12.40;99.90
9915;DHT22;4996;48.746;9.174;2023-12-28T14:03:48;12.40;99.90
9915;DHT22;4996;48.746;9.174;2023-12-28T14:06:16;12.40;99.90
9915;DHT22;4996;48.746;9.174;2023-12-28T14:08:42;12.50;99.90
9915;DHT22;4996;48.746;9.174;2023-12-28T14:11:07;12.20;99.90
9915;DHT22;4996;48.746;9.174;2023-12-28T14:13:33;12.10;99.90
9915;DHT22;4996;48.746;9.174;2023-12-28T14:16:00;12.00;99.90
9915;DHT22;4996;48.746;9.174;2023-12-28T14:18:26;12.10;99.90
9915;DHT22;4996;48.746;9.174;2023-12-28T14:20:51;12.10;99.90
9915;DHT22;4996;48.746;9.174;2023-12-28T14:23:17;12.10;99.90
9915;DHT22;4996;48.746;9.174;2023-12-28T14:25:45;12.10;99.90
9915;DHT22;4996;48.746;9.174;2023-12-28T14:28:17;12.10;99.90
9915;DHT22;4996;48.746;9.174;2023-12-28T14:30:42;12.20;99.90
9915;DHT22;4996;48.746;9.174;2023-12-28T14:33:08;12.30;99.90
9915;DHT22;4996;48.746;9.174;2023-12-28T14:35:34;12.30;99.90
9915;DHT22;4996;48.746;9.174;2023-12-28T14:38:00;12.30;99.90
9915;DHT22;4996;48.746;9.174;2023-12-28T14:40:26;12.30;99.90
9915;DHT22;4996;48.746;9.174;2023-12-28T14:42:51;12.20;99.90
9915;DHT22;4996;48.746;9.174;2023-12-28T14:45:17;12.00;99.90
9915;DHT22;4996;48.746;9.174;2023-12-28T14:47:42;11.90;99.90
9915;DHT22;4996;48.746;9.174;2023-12-28T14:50:08;11.90;99.90
9915;DHT22;4996;48.746;9.174;2023-12-28T14:52:34;11.80;99.90
9915;DHT22;4996;48.746;9.174;2023-12-28T14:55:03;11.90;99.90
9915;DHT22;4996;48.746;9.174;2023-12-28T14:57:29;12.00;99.90
9915;DHT22;4996;48.746;9.174;2023-12-28T14:59:54;11.90;99.90
9915;DHT22;4996;48.746;9.174;2023-12-28T15:02:20;11.90;99.90
9915;DHT22;4996;48.746;9.174;2023-12-28T15:04:45;12.00;99.90
9915;DHT22;4996;48.746;9.174;2023-12-28T15:07:10;12.00;99.90
9915;DHT22;4996;48.746;9.174;2023-12-28T15:09:36;11.80;99.90
9915;DHT22;4996;48.746;9.174;2023-12-28T15:12:02;11.70;99.90
9915;DHT22;4996;48.746;9.174;2023-12-28T15:14:28;11.80;99.90
9915;DHT22;4996;48.746;9.174;2023-12-28T15:16:56;11.90;99.90
9915;DHT22;4996;48.746;9.174;2023-12-28T15:19:21;11.80;99.90
9915;DHT22;4996;48.746;9.174;2023-12-28T15:21:47;11.80;99.90
9915;DHT22;4996;48.746;9.174;2023-12-28T15:24:13;11.80;99.90
9915;DHT22;4996;48.746;9.174;2023-12-28T15:26:39;11.80;99.90
9915;DHT22;4996;48.746;9.174;2023-12-28T15:29:04;11.80;99.90
9915;DHT22;4996;48.746;9.174;2023-12-28T15:31:30;11.80;99.90
9915;DHT22;4996;48.746;9.174;2023-12-28T15:33:55;11.80;99.90
9915;DHT22;4996;48.746;9.174;2023-12-28T15:36:22;11.70;99.90
9915;DHT22;4996;48.746;9.174;2023-12-28T15:38:47;11.70;99.90
9915;DHT22;4996;48.746;9.174;2023-12-28T15:41:13;11.70;99.90
9915;DHT22;4996;48.746;9.174;2023-12-28T15:43:39;11.80;99.90
9915;DHT22;4996;48.746;9.174;2023-12-28T15:46:04;11.80;99.90
9915;DHT22;4996;48.746;9.174;2023-12-28T15:48:30;11.80;99.90
9915;DHT22;4996;48.746;9.174;2023-12-28T15:50:56;11.80;99.90
9915;DHT22;4996;48.746;9.174;2023-12-28T15:53:21;11.80;99.90
9915;DHT22;4996;48.746;9.174;2023-12-28T15:55:47;11.80;99.90
9915;DHT22;4996;48.746;9.174;2023-12-28T15:58:12;11.70;99.90
9915;DHT22;4996;48.746;9.174;2023-12-28T16:00:38;11.60;99.90
9915;DHT22;4996;48.746;9.174;2023-12-28T16:03:04;11.50;99.90
9915;DHT22;4996;48.746;9.174;2023-12-28T16:05:30;11.30;99.90
9915;DHT22;4996;48.746;9.174;2023-12-28T16:07:55;11.30;99.90